createdAt,value
2019-05-07T00:01:17.225Z,21.40
2019-05-07T00:04:05.060Z,19.70
2019-05-07T00:06:53.456Z,21.30
2019-05-07T00:09:43.054Z,21.57
2019-05-07T00:12:32.336Z,22.07
2019-05-07T00:15:20.087Z,21.47
2019-05-07T00:18:07.875Z,21.20
2019-05-07T00:20:55.776Z,20.20
2019-05-07T00:23:43.477Z,20.13
2019-05-07T00:26:32.089Z,21.23
2019-05-07T00:29:22.223Z,18.73
2019-05-07T00:32:11.958Z,19.87
2019-05-07T00:35:02.931Z,19.97
2019-05-07T00:37:56.238Z,19.43
2019-05-07T00:41:06.237Z,19.77
2019-05-07T00:43:56.170Z,18.90
2019-05-07T00:46:44.630Z,18.13
2019-05-07T00:49:33.097Z,21.07
2019-05-07T00:52:22.594Z,20.33
2019-05-07T00:55:12.019Z,20.00
2019-05-07T00:58:02.218Z,19.70
2019-05-07T01:00:49.475Z,20.27
2019-05-07T01:03:37.644Z,20.10
2019-05-07T01:06:26.467Z,20.23
2019-05-07T01:09:14.991Z,19.30
2019-05-07T01:12:03.920Z,20.30
2019-05-07T01:14:53.072Z,19.37
2019-05-07T01:17:42.521Z,20.53
2019-05-07T01:20:32.898Z,21.27
2019-05-07T01:23:22.854Z,20.90
2019-05-07T01:26:12.468Z,20.63
2019-05-07T01:29:02.822Z,22.13
2019-05-07T01:31:59.318Z,21.60
2019-05-07T01:34:52.763Z,20.43
2019-05-07T01:37:42.160Z,20.30
2019-05-07T01:40:32.376Z,23.07
2019-05-07T01:43:19.699Z,24.63
2019-05-07T01:46:07.743Z,24.00
2019-05-07T01:48:57.482Z,22.10
2019-05-07T01:51:45.559Z,21.80
2019-05-07T01:54:33.573Z,22.60
2019-05-07T01:57:23.126Z,22.67
2019-05-07T02:00:13.186Z,22.10
2019-05-07T02:03:08.187Z,20.37
2019-05-07T02:06:02.183Z,21.90
2019-05-07T02:09:22.542Z,22.20
2019-05-07T02:12:14.903Z,21.43
2019-05-07T02:15:03.719Z,20.50
2019-05-07T02:17:52.550Z,23.47
2019-05-07T02:20:42.624Z,21.33
2019-05-07T02:23:32.863Z,20.20
2019-05-07T02:26:22.373Z,20.17
2019-05-07T02:29:12.262Z,23.27
2019-05-07T02:32:04.179Z,22.40
2019-05-07T02:34:54.168Z,20.23
2019-05-07T02:37:51.114Z,20.80
2019-05-07T02:40:54.808Z,21.60
2019-05-07T02:43:43.046Z,21.00
2019-05-07T02:46:56.387Z,21.33
2019-05-07T02:49:54.868Z,20.83
2019-05-07T02:53:17.461Z,22.30
2019-05-07T02:56:04.578Z,23.10
2019-05-07T02:58:52.838Z,21.53
2019-05-07T03:01:43.220Z,20.70
2019-05-07T03:04:33.384Z,20.87
2019-05-07T03:07:24.238Z,22.47
2019-05-07T03:10:13.648Z,20.87
2019-05-07T03:13:02.868Z,21.40
2019-05-07T03:15:50.355Z,20.00
2019-05-07T03:18:38.514Z,21.17
2019-05-07T03:21:27.944Z,22.27
2019-05-07T03:24:23.037Z,20.23
2019-05-07T03:27:13.795Z,19.60
2019-05-07T03:30:16.734Z,19.30
2019-05-07T03:33:36.602Z,20.20
2019-05-07T03:36:39.134Z,22.70
2019-05-07T03:39:27.895Z,20.90
2019-05-07T03:42:16.078Z,23.10
2019-05-07T03:45:19.275Z,20.47
2019-05-07T03:48:13.333Z,20.60
2019-05-07T03:50:59.432Z,18.03
2019-05-07T03:53:47.941Z,19.60
2019-05-07T03:56:35.881Z,19.53
2019-05-07T03:59:24.151Z,19.67
2019-05-07T04:02:14.340Z,17.77
2019-05-07T04:05:04.355Z,17.63
2019-05-07T04:07:54.062Z,17.80
2019-05-07T04:10:43.800Z,20.90
2019-05-07T04:13:33.400Z,20.33
2019-05-07T04:16:23.668Z,19.97
2019-05-07T04:19:13.222Z,19.33
2019-05-07T04:22:04.034Z,32.83
2019-05-07T04:25:13.108Z,29.07
2019-05-07T04:28:13.893Z,23.13
2019-05-07T04:31:02.939Z,25.23
2019-05-07T04:33:53.316Z,21.37
2019-05-07T04:36:44.691Z,25.37
2019-05-07T04:39:33.515Z,22.70
2019-05-07T04:42:24.416Z,23.40
2019-05-07T04:45:13.737Z,22.40
2019-05-07T04:48:03.115Z,23.20
2019-05-07T04:50:54.377Z,24.40
2019-05-07T04:53:43.100Z,22.60
2019-05-07T04:56:33.650Z,22.77
2019-05-07T04:59:23.494Z,23.80
2019-05-07T05:02:15.939Z,22.33
2019-05-07T05:05:03.908Z,22.50
2019-05-07T05:07:53.316Z,22.40
2019-05-07T05:10:43.318Z,23.63
2019-05-07T05:13:33.061Z,24.47
2019-05-07T05:16:25.673Z,24.00
2019-05-07T05:19:13.978Z,22.87
2019-05-07T05:22:33.622Z,22.60
2019-05-07T05:25:26.211Z,24.73
2019-05-07T05:28:14.896Z,27.50
2019-05-07T05:31:05.119Z,24.47
2019-05-07T05:33:53.059Z,27.53
2019-05-07T05:36:42.506Z,25.87
2019-05-07T05:39:32.029Z,27.37
2019-05-07T05:42:29.115Z,27.33
2019-05-07T05:45:38.067Z,24.77
2019-05-07T05:48:26.018Z,24.97
2019-05-07T05:51:23.276Z,25.40
2019-05-07T05:54:36.406Z,23.80
2019-05-07T05:57:52.992Z,24.13
2019-05-07T06:01:03.067Z,24.80
2019-05-07T06:03:58.240Z,23.20
2019-05-07T06:07:08.036Z,22.70
2019-05-07T06:10:07.260Z,24.10
2019-05-07T06:13:09.751Z,22.37
2019-05-07T06:16:06.507Z,23.30
2019-05-07T06:19:09.415Z,23.60
2019-05-07T06:22:09.194Z,21.10
2019-05-07T06:25:02.341Z,21.97
2019-05-07T06:27:52.612Z,20.60
2019-05-07T06:30:41.823Z,22.70
2019-05-07T06:33:29.400Z,22.07
2019-05-07T06:36:18.220Z,21.13
2019-05-07T06:39:25.158Z,20.80
2019-05-07T06:42:33.219Z,18.80
2019-05-07T06:45:35.473Z,19.87
2019-05-07T06:48:37.793Z,19.97
2019-05-07T06:51:12.682Z,21.00
2019-05-07T06:54:02.658Z,21.47
2019-05-07T06:56:52.044Z,20.87
2019-05-07T06:59:45.667Z,20.93
2019-05-07T07:02:52.536Z,18.80
2019-05-07T07:05:58.794Z,19.20
2019-05-07T07:08:58.282Z,18.53
2019-05-07T07:11:52.876Z,18.70
2019-05-07T07:14:42.349Z,18.83
2019-05-07T07:17:32.450Z,18.27
2019-05-07T07:20:21.800Z,16.87
2019-05-07T07:23:09.131Z,18.40
2019-05-07T07:25:57.678Z,17.40
2019-05-07T07:28:45.435Z,17.07
2019-05-07T07:31:43.791Z,16.73
2019-05-07T07:34:34.312Z,18.30
2019-05-07T07:37:28.247Z,18.37
2019-05-07T07:40:28.199Z,16.50
2019-05-07T07:43:16.183Z,20.30
2019-05-07T07:46:04.586Z,18.57
2019-05-07T07:49:06.913Z,19.13
2019-05-07T07:51:45.460Z,22.13
2019-05-07T07:54:32.620Z,22.03
2019-05-07T07:57:43.647Z,22.77
2019-05-07T08:00:53.623Z,21.47
2019-05-07T08:03:41.881Z,23.20
2019-05-07T08:06:32.667Z,23.30
2019-05-07T08:09:23.942Z,24.30
2019-05-07T08:12:12.526Z,16.80
2019-05-07T08:15:14.590Z,16.30
2019-05-07T08:17:49.048Z,17.00
2019-05-07T08:20:37.287Z,13.47
2019-05-07T08:23:25.728Z,17.10
2019-05-07T08:26:13.979Z,18.80
2019-05-07T08:29:03.322Z,15.67
2019-05-07T08:32:05.179Z,14.50
2019-05-07T08:35:08.372Z,15.50
2019-05-07T08:37:56.614Z,17.50
2019-05-07T08:40:44.656Z,15.83
2019-05-07T08:43:33.472Z,16.87
2019-05-07T08:46:29.563Z,15.90
2019-05-07T08:49:17.546Z,16.07
2019-05-07T08:52:06.256Z,17.90
2019-05-07T08:54:54.270Z,16.90
2019-05-07T08:57:42.098Z,18.40
2019-05-07T09:00:32.441Z,16.43
2019-05-07T09:03:37.882Z,17.27
2019-05-07T09:06:34.603Z,18.07
2019-05-07T09:09:23.277Z,18.00
2019-05-07T09:12:12.443Z,19.03
2019-05-07T09:15:02.217Z,19.23
2019-05-07T09:17:52.542Z,17.07
2019-05-07T09:20:39.913Z,15.90
2019-05-07T09:23:28.516Z,15.63
2019-05-07T09:26:18.787Z,16.53
2019-05-07T09:29:29.035Z,16.80
2019-05-07T09:32:42.555Z,17.10
2019-05-07T09:35:43.799Z,17.10
2019-05-07T09:38:32.802Z,15.97
2019-05-07T09:41:27.455Z,17.70
2019-05-07T09:44:15.818Z,16.87
2019-05-07T09:47:04.482Z,16.07
2019-05-07T09:50:03.886Z,16.40
2019-05-07T09:52:43.197Z,15.43
2019-05-07T09:55:32.511Z,13.80
2019-05-07T09:58:35.278Z,12.80
2019-05-07T10:01:12.574Z,12.90
2019-05-07T10:04:02.655Z,11.90
2019-05-07T10:06:51.892Z,11.97
2019-05-07T10:09:40.087Z,12.87
2019-05-07T10:12:33.451Z,11.37
2019-05-07T10:15:22.570Z,12.30
2019-05-07T10:18:13.754Z,12.57
2019-05-07T10:21:02.502Z,13.53
2019-05-07T10:23:52.187Z,13.43
2019-05-07T10:26:42.881Z,14.87
2019-05-07T10:29:32.250Z,13.67
2019-05-07T10:32:20.956Z,16.63
2019-05-07T10:35:09.159Z,14.37
2019-05-07T10:37:57.114Z,16.67
2019-05-07T10:40:44.984Z,14.40
2019-05-07T10:43:33.219Z,16.37
2019-05-07T10:46:38.574Z,16.27
2019-05-07T10:49:31.832Z,17.00
2019-05-07T10:52:20.261Z,16.60
2019-05-07T10:55:08.494Z,16.17
2019-05-07T10:57:56.177Z,16.35
2019-05-07T11:00:44.131Z,15.20
2019-05-07T11:03:34.534Z,13.20
2019-05-07T11:06:22.188Z,16.03
2019-05-07T11:09:10.579Z,17.93
2019-05-07T11:11:58.624Z,18.07
2019-05-07T11:14:46.831Z,18.80
2019-05-07T11:17:41.900Z,18.10
2019-05-07T11:20:32.077Z,19.07
2019-05-07T11:23:22.215Z,17.40
2019-05-07T11:26:11.766Z,16.37
2019-05-07T11:29:02.360Z,15.90
2019-05-07T11:31:52.461Z,14.57
2019-05-07T11:34:42.225Z,16.40
2019-05-07T11:37:30.350Z,14.23
2019-05-07T11:40:20.051Z,14.40
2019-05-07T11:43:14.175Z,13.30
2019-05-07T11:46:22.185Z,14.00
2019-05-07T11:49:22.725Z,11.87
2019-05-07T11:52:15.168Z,12.30
2019-05-07T11:55:03.502Z,10.70
2019-05-07T11:57:52.220Z,10.60
2019-05-07T12:00:51.815Z,11.47
2019-05-07T12:03:40.249Z,10.40
2019-05-07T12:06:28.718Z,11.20
2019-05-07T12:09:17.003Z,12.37
2019-05-07T12:12:05.265Z,10.97
2019-05-07T12:14:53.420Z,11.63
2019-05-07T12:17:42.896Z,11.27
2019-05-07T12:20:32.430Z,11.70
2019-05-07T12:23:22.613Z,12.40
2019-05-07T12:26:12.574Z,14.30
2019-05-07T12:29:00.966Z,12.97
2019-05-07T12:32:06.080Z,12.47
2019-05-07T12:34:57.323Z,13.03
2019-05-07T12:37:47.882Z,14.20
2019-05-07T12:40:35.105Z,13.37
2019-05-07T12:43:22.767Z,14.53
2019-05-07T12:46:11.938Z,15.63
2019-05-07T12:49:02.863Z,14.70
2019-05-07T12:52:12.700Z,15.10
2019-05-07T12:55:20.411Z,15.03
2019-05-07T12:58:08.635Z,15.47
2019-05-07T13:01:01.276Z,16.70
2019-05-07T13:04:02.690Z,15.47
2019-05-07T13:07:15.046Z,17.87
2019-05-07T13:10:03.191Z,15.23
2019-05-07T13:12:52.648Z,11.83
2019-05-07T13:15:43.264Z,10.67
2019-05-07T13:18:31.544Z,11.17
2019-05-07T13:21:19.357Z,11.47
2019-05-07T13:24:07.320Z,11.00
2019-05-07T13:26:55.391Z,10.80
2019-05-07T13:29:44.898Z,11.27
2019-05-07T13:32:34.803Z,10.47
2019-05-07T13:35:24.085Z,10.43
2019-05-07T13:38:32.305Z,8.93
2019-05-07T13:41:27.527Z,9.53
2019-05-07T13:44:26.571Z,8.63
2019-05-07T13:47:35.107Z,9.00
2019-05-07T13:50:22.782Z,10.73
2019-05-07T13:53:12.320Z,11.03
2019-05-07T13:56:02.344Z,10.57
2019-05-07T13:58:52.231Z,10.67
2019-05-07T14:01:57.942Z,10.37
2019-05-07T14:04:45.572Z,11.13
2019-05-07T14:07:35.233Z,10.20
2019-05-07T14:10:23.159Z,11.10
2019-05-07T14:13:17.119Z,11.00
2019-05-07T14:16:11.893Z,11.30
2019-05-07T14:18:59.167Z,12.07
2019-05-07T14:21:47.392Z,11.17
2019-05-07T14:24:35.819Z,11.47
2019-05-07T14:27:24.292Z,12.37
2019-05-07T14:30:13.023Z,11.97
2019-05-07T14:33:07.136Z,13.63
2019-05-07T14:36:02.567Z,11.73
2019-05-07T14:38:52.013Z,12.03
2019-05-07T14:41:40.020Z,11.10
2019-05-07T14:44:47.361Z,11.20
2019-05-07T14:47:35.426Z,11.93
2019-05-07T14:50:23.655Z,12.33
2019-05-07T14:53:12.018Z,12.30
2019-05-07T14:56:00.501Z,13.67
2019-05-07T14:58:48.708Z,13.23
2019-05-07T15:01:36.285Z,13.23
2019-05-07T15:04:24.478Z,13.10
2019-05-07T15:07:12.304Z,13.20
2019-05-07T15:10:02.209Z,13.03
2019-05-07T15:12:52.164Z,14.00
2019-05-07T15:15:40.815Z,13.40
2019-05-07T15:18:52.756Z,14.40
2019-05-07T15:21:42.393Z,16.80
2019-05-07T15:24:30.251Z,13.20
2019-05-07T15:27:19.035Z,14.30
2019-05-07T15:30:07.455Z,13.37
2019-05-07T15:32:55.518Z,14.40
2019-05-07T15:35:43.324Z,14.03
2019-05-07T15:38:32.419Z,13.83
2019-05-07T15:41:22.808Z,13.60
2019-05-07T15:44:11.912Z,14.07
2019-05-07T15:47:02.780Z,14.63
2019-05-07T15:49:50.791Z,14.33
2019-05-07T15:52:58.444Z,14.47
2019-05-07T15:55:45.672Z,14.30
2019-05-07T15:58:34.164Z,13.87
2019-05-07T16:01:22.391Z,14.30
2019-05-07T16:04:21.739Z,13.93
2019-05-07T16:07:02.213Z,12.93
2019-05-07T16:09:52.589Z,14.43
2019-05-07T16:12:42.363Z,13.60
2019-05-07T16:15:31.952Z,13.80
2019-05-07T16:18:24.382Z,15.03
2019-05-07T16:21:12.574Z,14.10
2019-05-07T16:24:00.158Z,14.80
2019-05-07T16:26:48.669Z,15.03
2019-05-07T16:29:36.683Z,15.17
2019-05-07T16:32:24.450Z,14.10
2019-05-07T16:35:16.050Z,12.27
2019-05-07T16:38:02.884Z,12.10
2019-05-07T16:40:52.173Z,11.97
2019-05-07T16:43:42.805Z,11.30
2019-05-07T16:46:30.378Z,10.60
2019-05-07T16:49:18.690Z,10.00
2019-05-07T16:52:07.242Z,11.87
2019-05-07T16:54:55.346Z,11.90
2019-05-07T16:57:56.144Z,11.53
2019-05-07T17:00:46.979Z,10.93
2019-05-07T17:03:42.668Z,10.37
2019-05-07T17:06:32.251Z,11.60
2019-05-07T17:09:22.219Z,9.90
2019-05-07T17:12:11.688Z,10.40
2019-05-07T17:14:59.570Z,10.00
2019-05-07T17:17:49.143Z,12.17
2019-05-07T17:20:37.138Z,11.40
2019-05-07T17:23:25.287Z,11.87
2019-05-07T17:26:13.458Z,14.93
2019-05-07T17:29:02.621Z,11.80
2019-05-07T17:31:52.734Z,12.83
2019-05-07T17:34:42.094Z,12.50
2019-05-07T17:37:30.264Z,12.20
2019-05-07T17:40:18.351Z,14.13
2019-05-07T17:43:06.752Z,12.53
2019-05-07T17:45:55.448Z,13.27
2019-05-07T17:48:43.053Z,12.03
2019-05-07T17:51:43.643Z,12.33
2019-05-07T17:54:31.907Z,13.57
2019-05-07T17:57:20.238Z,12.30
2019-05-07T18:00:09.016Z,11.90
2019-05-07T18:03:15.049Z,11.47
2019-05-07T18:06:04.227Z,12.97
2019-05-07T18:08:52.514Z,12.20
2019-05-07T18:11:42.725Z,13.20
2019-05-07T18:14:32.170Z,13.73
2019-05-07T18:17:28.406Z,12.60
2019-05-07T18:20:16.111Z,13.10
2019-05-07T18:23:07.089Z,12.60
2019-05-07T18:25:56.735Z,11.80
2019-05-07T18:28:44.980Z,12.70
2019-05-07T18:31:47.110Z,11.80
2019-05-07T18:34:34.710Z,12.27
2019-05-07T18:37:23.224Z,11.20
2019-05-07T18:40:12.716Z,12.80
2019-05-07T18:43:03.061Z,12.00
2019-05-07T18:45:51.727Z,12.50
2019-05-07T18:48:42.419Z,13.30
2019-05-07T18:51:32.042Z,11.83
2019-05-07T18:54:27.745Z,12.70
2019-05-07T18:57:08.622Z,11.63
2019-05-07T18:59:56.978Z,11.90
2019-05-07T19:02:44.569Z,17.33
2019-05-07T19:05:32.579Z,16.70
2019-05-07T19:08:22.740Z,20.40
2019-05-07T19:11:12.089Z,20.57
2019-05-07T19:13:59.503Z,18.50
2019-05-07T19:16:47.599Z,16.93
2019-05-07T19:19:35.099Z,15.37
2019-05-07T19:22:23.115Z,13.47
2019-05-07T19:25:12.026Z,14.23
2019-05-07T19:28:01.998Z,16.40
2019-05-07T19:30:49.898Z,14.50
2019-05-07T19:33:37.634Z,15.13
2019-05-07T19:36:25.650Z,13.70
2019-05-07T19:39:13.843Z,16.80
2019-05-07T19:42:02.580Z,16.10
2019-05-07T19:44:51.826Z,15.10
2019-05-07T19:47:39.816Z,14.17
2019-05-07T19:50:27.511Z,15.20
2019-05-07T19:53:15.362Z,15.60
2019-05-07T19:56:06.429Z,14.73
2019-05-07T19:58:54.690Z,14.30
2019-05-07T20:01:47.150Z,14.73
2019-05-07T20:04:35.220Z,17.13
2019-05-07T20:07:22.868Z,16.70
2019-05-07T20:10:13.075Z,16.90
2019-05-07T20:13:03.004Z,17.50
2019-05-07T20:15:54.754Z,21.37
2019-05-07T20:18:42.995Z,24.10
2019-05-07T20:21:32.599Z,24.87
2019-05-07T20:24:22.061Z,26.77
2019-05-07T20:27:12.495Z,24.37
2019-05-07T20:30:03.107Z,22.77
2019-05-07T20:32:52.196Z,25.13
2019-05-07T20:35:41.874Z,23.57
2019-05-07T20:38:31.947Z,23.17
2019-05-07T20:41:19.684Z,22.30
2019-05-07T20:44:07.970Z,22.00
2019-05-07T20:46:56.605Z,16.70
2019-05-07T20:49:44.654Z,19.80
2019-05-07T20:52:33.043Z,17.87
2019-05-07T20:55:33.226Z,18.47
2019-05-07T20:58:18.448Z,18.50
2019-05-07T21:01:06.711Z,19.07
2019-05-07T21:03:54.771Z,17.87
2019-05-07T21:06:43.378Z,18.23
2019-05-07T21:09:32.830Z,20.07
2019-05-07T21:12:22.555Z,19.67
2019-05-07T21:15:12.383Z,19.00
2019-05-07T21:18:01.386Z,20.40
2019-05-07T21:20:49.269Z,17.40
2019-05-07T21:23:37.447Z,20.43
2019-05-07T21:26:26.610Z,22.67
2019-05-07T21:29:14.587Z,27.10
2019-05-07T21:32:03.807Z,27.43
2019-05-07T21:34:52.712Z,28.90
2019-05-07T21:37:41.874Z,26.30
2019-05-07T21:40:31.928Z,25.33
2019-05-07T21:43:21.844Z,23.67
2019-05-07T21:46:12.575Z,25.73
2019-05-07T21:48:59.662Z,25.37
2019-05-07T21:51:48.458Z,25.03
2019-05-07T21:54:45.346Z,26.43
2019-05-07T21:57:54.456Z,26.97
2019-05-07T22:00:57.572Z,25.40
2019-05-07T22:03:52.249Z,24.63
2019-05-07T22:06:37.527Z,26.70
2019-05-07T22:09:25.914Z,27.27
2019-05-07T22:12:14.165Z,25.07
2019-05-07T22:15:04.550Z,23.50
2019-05-07T22:17:52.745Z,22.83
2019-05-07T22:20:42.549Z,23.10
2019-05-07T22:23:32.318Z,25.17
2019-05-07T22:26:25.696Z,26.33
2019-05-07T22:29:09.523Z,29.63
2019-05-07T22:32:11.999Z,27.77
2019-05-07T22:35:05.698Z,26.87
2019-05-07T22:37:54.263Z,21.80
2019-05-07T22:40:43.377Z,22.60
2019-05-07T22:43:31.929Z,23.20
2019-05-07T22:46:22.173Z,22.70
2019-05-07T22:49:12.098Z,23.43
2019-05-07T22:51:59.467Z,28.23
2019-05-07T22:54:48.883Z,27.03
2019-05-07T22:57:59.040Z,24.30
2019-05-07T23:00:51.140Z,23.57
2019-05-07T23:03:40.153Z,25.70
2019-05-07T23:06:28.348Z,24.30
2019-05-07T23:09:16.884Z,23.50
2019-05-07T23:12:04.830Z,22.30
2019-05-07T23:14:53.747Z,21.67
2019-05-07T23:17:42.519Z,25.63
2019-05-07T23:20:32.000Z,24.53
2019-05-07T23:23:21.742Z,26.00
2019-05-07T23:26:14.301Z,23.07
2019-05-07T23:28:59.614Z,24.60
2019-05-07T23:31:47.972Z,24.80
2019-05-07T23:34:36.266Z,23.40
2019-05-07T23:37:24.190Z,26.60
2019-05-07T23:40:18.942Z,26.03
2019-05-07T23:43:07.623Z,24.40
2019-05-07T23:45:56.054Z,25.17
2019-05-07T23:48:44.543Z,26.10
2019-05-07T23:51:32.237Z,23.23
2019-05-07T23:54:22.701Z,23.53
2019-05-07T23:57:15.039Z,25.83
